<?xml version="1.0" encoding="UTF-8" standalone="no" ?><gpx xmlns="http://www.topografix.com/GPX/1/1" xmlns:gpxx="http://www.garmin.com/xmlschemas/GpxExtensions/v3" xmlns:wptx1="http://www.garmin.com/xmlschemas/WaypointExtension/v1" xmlns:gpxtpx="http://www.garmin.com/xmlschemas/TrackPointExtension/v1" creator="GuideVTT.com" version="1.1" xmlns:xsi="http://www.w3.org/2001/XMLSchema-instance" xsi:schemaLocation="http://www.topografix.com/GPX/1/1 http://www.topografix.com/GPX/1/1/gpx.xsd http://www.garmin.com/xmlschemas/GpxExtensions/v3 http://www8.garmin.com/xmlschemas/GpxExtensionsv3.xsd http://www.garmin.com/xmlschemas/WaypointExtension/v1 http://www8.garmin.com/xmlschemas/WaypointExtensionv1.xsd http://www.garmin.com/xmlschemas/TrackPointExtension/v1 http://www.garmin.com/xmlschemas/TrackPointExtensionv1.xsd">
<metadata><link href="http://www.garmin.com"><text>Garmin International</text></link><time>2013-06-22T15:13:50Z</time></metadata>
<trk><name>18oct30km.gpx</name><extensions><gpxx:TrackExtension><gpxx:DisplayColor>Cyan</gpxx:DisplayColor></gpxx:TrackExtension></extensions><trkseg>
<trkpt lat="379.01137728" lon="100"><ele></ele><time>2014-6-9T10:16:12Z</time></trkpt>
<trkpt lat="379.57860416" lon="143.8"><ele></ele><time>2014-6-9T10:16:15Z</time></trkpt>
<trkpt lat="380.02205408" lon="182.4"><ele></ele><time>2014-6-9T10:16:18Z</time></trkpt>
<trkpt lat="380.26674112" lon="225.1"><ele></ele><time>2014-6-9T10:16:21Z</time></trkpt>
<trkpt lat="380.66507296" lon="297.5"><ele></ele><time>2014-6-9T10:16:24Z</time></trkpt>
<trkpt lat="380.7362992" lon="321.9"><ele></ele><time>2014-6-9T10:16:27Z</time></trkpt>
<trkpt lat="380.06809088" lon="374.3"><ele></ele><time>2014-6-9T10:16:30Z</time></trkpt>
<trkpt lat="377.8070528" lon="435"><ele></ele><time>2014-6-9T10:16:33Z</time></trkpt>
<trkpt lat="373.9635776" lon="515.3"><ele></ele><time>2014-6-9T10:16:36Z</time></trkpt>
<trkpt lat="369.0976136" lon="589.7"><ele></ele><time>2014-6-9T10:16:39Z</time></trkpt>
<trkpt lat="365.82948304" lon="656.1"><ele></ele><time>2014-6-9T10:16:42Z</time></trkpt>
<trkpt lat="366.545344" lon="697.8"><ele></ele><time>2014-6-9T10:16:45Z</time></trkpt>
<trkpt lat="368.32577152" lon="800.5"><ele></ele><time>2014-6-9T10:16:48Z</time></trkpt>
<trkpt lat="368.96652352" lon="855.1"><ele></ele><time>2014-6-9T10:16:51Z</time></trkpt>
<trkpt lat="371.5835104" lon="927.5"><ele></ele><time>2014-6-9T10:16:54Z</time></trkpt>
<trkpt lat="372.23775424" lon="1006.6"><ele></ele><time>2014-6-9T10:16:57Z</time></trkpt>
<trkpt lat="374.1859936" lon="1060.5"><ele></ele><time>2014-6-9T10:17:0Z</time></trkpt>
<trkpt lat="378.527128" lon="1131.7"><ele></ele><time>2014-6-9T10:17:3Z</time></trkpt>
<trkpt lat="379.60739056" lon="1189.3"><ele></ele><time>2014-6-9T10:17:6Z</time></trkpt>
<trkpt lat="382.78058752" lon="1229.6"><ele></ele><time>2014-6-9T10:17:9Z</time></trkpt>
<trkpt lat="388.89143744" lon="1298.7"><ele></ele><time>2014-6-9T10:17:12Z</time></trkpt>
<trkpt lat="390.36365696" lon="1347.5"><ele></ele><time>2014-6-9T10:17:15Z</time></trkpt>
<trkpt lat="387.7604512" lon="1411.5"><ele></ele><time>2014-6-9T10:17:18Z</time></trkpt>
<trkpt lat="386.374252" lon="1464.2"><ele></ele><time>2014-6-9T10:17:21Z</time></trkpt>
<trkpt lat="385.5945248" lon="1523.6"><ele></ele><time>2014-6-9T10:17:24Z</time></trkpt>
<trkpt lat="386.59134208" lon="1637.8"><ele></ele><time>2014-6-9T10:17:27Z</time></trkpt>
<trkpt lat="390.2061136" lon="1712"><ele></ele><time>2014-6-9T10:17:30Z</time></trkpt>
<trkpt lat="394.527456" lon="1799"><ele></ele><time>2014-6-9T10:17:33Z</time></trkpt>
<trkpt lat="397.64231232" lon="1853.8"><ele></ele><time>2014-6-9T10:17:36Z</time></trkpt>
<trkpt lat="399.3053408" lon="1901"><ele></ele><time>2014-6-9T10:17:39Z</time></trkpt>
<trkpt lat="402.0793328" lon="1939.4"><ele></ele><time>2014-6-9T10:17:42Z</time></trkpt>
<trkpt lat="401.7912192" lon="1991.8"><ele></ele><time>2014-6-9T10:17:45Z</time></trkpt>
<trkpt lat="397.18192416" lon="2029.8"><ele></ele><time>2014-6-9T10:17:48Z</time></trkpt>
<trkpt lat="393.82130048" lon="2067.4"><ele></ele><time>2014-6-9T10:17:51Z</time></trkpt>
<trkpt lat="394.01467232" lon="2107.3"><ele></ele><time>2014-6-9T10:17:54Z</time></trkpt>
<trkpt lat="390.55267616" lon="2146.2"><ele></ele><time>2014-6-9T10:17:57Z</time></trkpt>
<trkpt lat="385.65826592" lon="2183.1"><ele></ele><time>2014-6-9T10:18:0Z</time></trkpt>
<trkpt lat="383.1439624" lon="2217.4"><ele></ele><time>2014-6-9T10:18:3Z</time></trkpt>
<trkpt lat="380.7322624" lon="2250.6"><ele></ele><time>2014-6-9T10:18:6Z</time></trkpt>
<trkpt lat="372.81141664" lon="2409.1"><ele></ele><time>2014-6-9T10:18:9Z</time></trkpt>
<trkpt lat="371.32592064" lon="2525.6"><ele></ele><time>2014-6-9T10:18:12Z</time></trkpt>
<trkpt lat="364.79826432" lon="2629.7"><ele></ele><time>2014-6-9T10:18:15Z</time></trkpt>
<trkpt lat="362.34366624" lon="2693.5"><ele></ele><time>2014-6-9T10:18:18Z</time></trkpt>
<trkpt lat="362.91031744" lon="2725.5"><ele></ele><time>2014-6-9T10:18:21Z</time></trkpt>
<trkpt lat="367.5588088" lon="2756.8"><ele></ele><time>2014-6-9T10:18:24Z</time></trkpt>
<trkpt lat="374.0847136" lon="2819.5"><ele></ele><time>2014-6-9T10:18:27Z</time></trkpt>
<trkpt lat="372.1253056" lon="2854.4"><ele></ele><time>2014-6-9T10:18:30Z</time></trkpt>
<trkpt lat="376.793592" lon="2892.6"><ele></ele><time>2014-6-9T10:18:33Z</time></trkpt>
<trkpt lat="380.33508" lon="2909.5"><ele></ele><time>2014-6-9T10:18:36Z</time></trkpt>
<trkpt lat="387.39668016" lon="2930.9"><ele></ele><time>2014-6-9T10:18:39Z</time></trkpt>
<trkpt lat="390.07708416" lon="2943.9"><ele></ele><time>2014-6-9T10:18:42Z</time></trkpt>
<trkpt lat="394.05652032" lon="2968.2"><ele></ele><time>2014-6-9T10:18:45Z</time></trkpt>
<trkpt lat="397.885008" lon="2994.7"><ele></ele><time>2014-6-9T10:18:48Z</time></trkpt>
<trkpt lat="400.30086912" lon="3019.1"><ele></ele><time>2014-6-9T10:18:51Z</time></trkpt>
<trkpt lat="401.9014464" lon="3046.7"><ele></ele><time>2014-6-9T10:18:54Z</time></trkpt>
<trkpt lat="407.9178792" lon="3076.4"><ele></ele><time>2014-6-9T10:18:57Z</time></trkpt>
<trkpt lat="407.90364928" lon="3098.9"><ele></ele><time>2014-6-9T10:19:0Z</time></trkpt>
<trkpt lat="406.0916704" lon="3127.6"><ele></ele><time>2014-6-9T10:19:3Z</time></trkpt>
<trkpt lat="406.5172224" lon="3145.4"><ele></ele><time>2014-6-9T10:19:6Z</time></trkpt>
<trkpt lat="411.0900864" lon="3184.8"><ele></ele><time>2014-6-9T10:19:9Z</time></trkpt>
<trkpt lat="413.62969376" lon="3209.8"><ele></ele><time>2014-6-9T10:19:12Z</time></trkpt>
<trkpt lat="414.54702368" lon="3236.7"><ele></ele><time>2014-6-9T10:19:15Z</time></trkpt>
<trkpt lat="421.327424" lon="3277.4"><ele></ele><time>2014-6-9T10:19:18Z</time></trkpt>
<trkpt lat="424.3805792" lon="3307.4"><ele></ele><time>2014-6-9T10:19:21Z</time></trkpt>
<trkpt lat="423.703136" lon="3355.9"><ele></ele><time>2014-6-9T10:19:24Z</time></trkpt>
<trkpt lat="423.867116" lon="3384.7"><ele></ele><time>2014-6-9T10:19:27Z</time></trkpt>
<trkpt lat="423.5599232" lon="3436.6"><ele></ele><time>2014-6-9T10:19:30Z</time></trkpt>
<trkpt lat="422.44531904" lon="3484.6"><ele></ele><time>2014-6-9T10:19:33Z</time></trkpt>
<trkpt lat="423.4228" lon="3530.8"><ele></ele><time>2014-6-9T10:19:36Z</time></trkpt>
<trkpt lat="422.96094592" lon="3575.8"><ele></ele><time>2014-6-9T10:19:39Z</time></trkpt>
<trkpt lat="420.8849464" lon="3613.8"><ele></ele><time>2014-6-9T10:19:42Z</time></trkpt>
<trkpt lat="419.73450816" lon="3695"><ele></ele><time>2014-6-9T10:19:45Z</time></trkpt>
<trkpt lat="419.7861344" lon="3750.3"><ele></ele><time>2014-6-9T10:19:48Z</time></trkpt>
<trkpt lat="410.94236256" lon="3811.4"><ele></ele><time>2014-6-9T10:19:51Z</time></trkpt>
<trkpt lat="404.0976" lon="3873.8"><ele></ele><time>2014-6-9T10:19:54Z</time></trkpt>
<trkpt lat="399.3564" lon="3935"><ele></ele><time>2014-6-9T10:19:57Z</time></trkpt>
<trkpt lat="392.4493928" lon="4007.7"><ele></ele><time>2014-6-9T10:20:0Z</time></trkpt>
<trkpt lat="390.731308" lon="4023.5"><ele></ele><time>2014-6-9T10:20:3Z</time></trkpt>
<trkpt lat="391.165504" lon="4066.4"><ele></ele><time>2014-6-9T10:20:6Z</time></trkpt>
<trkpt lat="391.55646464" lon="4110.7"><ele></ele><time>2014-6-9T10:20:9Z</time></trkpt>
<trkpt lat="393.384" lon="4156.5"><ele></ele><time>2014-6-9T10:20:12Z</time></trkpt>
<trkpt lat="397.91184" lon="4240.1"><ele></ele><time>2014-6-9T10:20:15Z</time></trkpt>
<trkpt lat="398.370048" lon="4287.6"><ele></ele><time>2014-6-9T10:20:18Z</time></trkpt>
<trkpt lat="400.10840784" lon="4326"><ele></ele><time>2014-6-9T10:20:21Z</time></trkpt>
<trkpt lat="399.63591168" lon="4369.6"><ele></ele><time>2014-6-9T10:20:24Z</time></trkpt>
<trkpt lat="397.07985408" lon="4407.7"><ele></ele><time>2014-6-9T10:20:27Z</time></trkpt>
<trkpt lat="392.7544" lon="4465.5"><ele></ele><time>2014-6-9T10:20:30Z</time></trkpt>
<trkpt lat="388.5664" lon="4514.4"><ele></ele><time>2014-6-9T10:20:33Z</time></trkpt>
<trkpt lat="381.52" lon="4591.8"><ele></ele><time>2014-6-9T10:20:36Z</time></trkpt>
<trkpt lat="373.30668544" lon="4695.7"><ele></ele><time>2014-6-9T10:20:39Z</time></trkpt>
<trkpt lat="371.272" lon="4739.1"><ele></ele><time>2014-6-9T10:20:42Z</time></trkpt>
<trkpt lat="368.7906688" lon="4796.5"><ele></ele><time>2014-6-9T10:20:45Z</time></trkpt>
<trkpt lat="368.188" lon="4850.8"><ele></ele><time>2014-6-9T10:20:48Z</time></trkpt>
<trkpt lat="366.29967232" lon="4902.7"><ele></ele><time>2014-6-9T10:20:51Z</time></trkpt>
<trkpt lat="363.58088512" lon="4973.7"><ele></ele><time>2014-6-9T10:20:54Z</time></trkpt>
<trkpt lat="362.7576" lon="5022.4"><ele></ele><time>2014-6-9T10:20:57Z</time></trkpt>
<trkpt lat="361.996" lon="5113.1"><ele></ele><time>2014-6-9T10:21:0Z</time></trkpt>
<trkpt lat="361.41401824" lon="5164.5"><ele></ele><time>2014-6-9T10:21:3Z</time></trkpt>
<trkpt lat="359.5713984" lon="5220.7"><ele></ele><time>2014-6-9T10:21:6Z</time></trkpt>
<trkpt lat="358.63742112" lon="5256.8"><ele></ele><time>2014-6-9T10:21:9Z</time></trkpt>
<trkpt lat="357.8992" lon="5289.6"><ele></ele><time>2014-6-9T10:21:12Z</time></trkpt>
<trkpt lat="355.46349664" lon="5328.4"><ele></ele><time>2014-6-9T10:21:15Z</time></trkpt>
<trkpt lat="354.0103336" lon="5373.6"><ele></ele><time>2014-6-9T10:21:18Z</time></trkpt>
<trkpt lat="348.63082992" lon="5456.2"><ele></ele><time>2014-6-9T10:21:21Z</time></trkpt>
<trkpt lat="346.15892416" lon="5488.2"><ele></ele><time>2014-6-9T10:21:24Z</time></trkpt>
<trkpt lat="342.94985152" lon="5540.5"><ele></ele><time>2014-6-9T10:21:27Z</time></trkpt>
<trkpt lat="341.92249456" lon="5585.1"><ele></ele><time>2014-6-9T10:21:30Z</time></trkpt>
<trkpt lat="340.3388" lon="5647.4"><ele></ele><time>2014-6-9T10:21:33Z</time></trkpt>
<trkpt lat="340.0916" lon="5725.3"><ele></ele><time>2014-6-9T10:21:36Z</time></trkpt>
<trkpt lat="338.05225472" lon="5790"><ele></ele><time>2014-6-9T10:21:39Z</time></trkpt>
<trkpt lat="334.5072" lon="5949"><ele></ele><time>2014-6-9T10:21:42Z</time></trkpt>
<trkpt lat="332.1267296" lon="6133"><ele></ele><time>2014-6-9T10:21:45Z</time></trkpt>
<trkpt lat="332.13474368" lon="6215.9"><ele></ele><time>2014-6-9T10:21:48Z</time></trkpt>
<trkpt lat="330.798816" lon="6494.1"><ele></ele><time>2014-6-9T10:21:51Z</time></trkpt>
<trkpt lat="328.8324" lon="6595.5"><ele></ele><time>2014-6-9T10:21:54Z</time></trkpt>
<trkpt lat="326.6261856" lon="6753.2"><ele></ele><time>2014-6-9T10:21:57Z</time></trkpt>
<trkpt lat="324.6696" lon="6879.1"><ele></ele><time>2014-6-9T10:22:0Z</time></trkpt>
<trkpt lat="320.5289688" lon="7177.8"><ele></ele><time>2014-6-9T10:22:3Z</time></trkpt>
<trkpt lat="320.646" lon="7262.6"><ele></ele><time>2014-6-9T10:22:6Z</time></trkpt>
<trkpt lat="317.5648" lon="7477"><ele></ele><time>2014-6-9T10:22:9Z</time></trkpt>
<trkpt lat="316.64735216" lon="7555.3"><ele></ele><time>2014-6-9T10:22:12Z</time></trkpt>
<trkpt lat="316.221896" lon="7589.4"><ele></ele><time>2014-6-9T10:22:15Z</time></trkpt>
<trkpt lat="316.2472" lon="7624.3"><ele></ele><time>2014-6-9T10:22:18Z</time></trkpt>
<trkpt lat="313.3778496" lon="7904.7"><ele></ele><time>2014-6-9T10:22:21Z</time></trkpt>
<trkpt lat="313.2384" lon="8038.7"><ele></ele><time>2014-6-9T10:22:24Z</time></trkpt>
<trkpt lat="312.2022944" lon="8109.4"><ele></ele><time>2014-6-9T10:22:27Z</time></trkpt>
<trkpt lat="312.09177968" lon="8140.4"><ele></ele><time>2014-6-9T10:22:30Z</time></trkpt>
<trkpt lat="312.45627344" lon="8173.3"><ele></ele><time>2014-6-9T10:22:33Z</time></trkpt>
<trkpt lat="314.30384" lon="8210.3"><ele></ele><time>2014-6-9T10:22:36Z</time></trkpt>
<trkpt lat="321.02427968" lon="8267.3"><ele></ele><time>2014-6-9T10:22:39Z</time></trkpt>
<trkpt lat="323.5728512" lon="8299.7"><ele></ele><time>2014-6-9T10:22:42Z</time></trkpt>
<trkpt lat="325.664768" lon="8330.2"><ele></ele><time>2014-6-9T10:22:45Z</time></trkpt>
<trkpt lat="325.8154144" lon="8386.8"><ele></ele><time>2014-6-9T10:22:48Z</time></trkpt>
<trkpt lat="324.5672128" lon="8413.2"><ele></ele><time>2014-6-9T10:22:51Z</time></trkpt>
<trkpt lat="330.37912" lon="8474.1"><ele></ele><time>2014-6-9T10:22:54Z</time></trkpt>
<trkpt lat="331.31802496" lon="8522.9"><ele></ele><time>2014-6-9T10:22:57Z</time></trkpt>
<trkpt lat="331.4535824" lon="8571.2"><ele></ele><time>2014-6-9T10:23:0Z</time></trkpt>
<trkpt lat="330.82798208" lon="8637.8"><ele></ele><time>2014-6-9T10:23:3Z</time></trkpt>
<trkpt lat="331.23678224" lon="8706.3"><ele></ele><time>2014-6-9T10:23:6Z</time></trkpt>
<trkpt lat="330.4760768" lon="8760.8"><ele></ele><time>2014-6-9T10:23:9Z</time></trkpt>
<trkpt lat="329.9944" lon="8788.8"><ele></ele><time>2014-6-9T10:23:12Z</time></trkpt>
<trkpt lat="329.4496" lon="8839.3"><ele></ele><time>2014-6-9T10:23:15Z</time></trkpt>
<trkpt lat="329.04794816" lon="8889.9"><ele></ele><time>2014-6-9T10:23:18Z</time></trkpt>
<trkpt lat="329.6785808" lon="8990.3"><ele></ele><time>2014-6-9T10:23:21Z</time></trkpt>
<trkpt lat="329.99124896" lon="9064.6"><ele></ele><time>2014-6-9T10:23:24Z</time></trkpt>
<trkpt lat="329.96570688" lon="9128"><ele></ele><time>2014-6-9T10:23:27Z</time></trkpt>
<trkpt lat="325.3428" lon="9318.9"><ele></ele><time>2014-6-9T10:23:30Z</time></trkpt>
<trkpt lat="324.1792" lon="9482.5"><ele></ele><time>2014-6-9T10:23:33Z</time></trkpt>
<trkpt lat="323.4108" lon="9661.2"><ele></ele><time>2014-6-9T10:23:36Z</time></trkpt>
<trkpt lat="322.3408" lon="9771.2"><ele></ele><time>2014-6-9T10:23:39Z</time></trkpt>
<trkpt lat="322.3804" lon="9799"><ele></ele><time>2014-6-9T10:23:42Z</time></trkpt>
<trkpt lat="322.8872" lon="9829.2"><ele></ele><time>2014-6-9T10:23:45Z</time></trkpt>
<trkpt lat="323.294" lon="9851.4"><ele></ele><time>2014-6-9T10:23:48Z</time></trkpt>
<trkpt lat="323.5076" lon="9882"><ele></ele><time>2014-6-9T10:23:51Z</time></trkpt>
<trkpt lat="323.51217728" lon="9940.5"><ele></ele><time>2014-6-9T10:23:54Z</time></trkpt>
<trkpt lat="325.2404" lon="10105.4"><ele></ele><time>2014-6-9T10:23:57Z</time></trkpt>
<trkpt lat="324.9644" lon="10120.6"><ele></ele><time>2014-6-9T10:24:0Z</time></trkpt>
<trkpt lat="324.4904" lon="10150.1"><ele></ele><time>2014-6-9T10:24:3Z</time></trkpt>
<trkpt lat="324.3704" lon="10159.2"><ele></ele><time>2014-6-9T10:24:6Z</time></trkpt>
<trkpt lat="322.56032" lon="10187.9"><ele></ele><time>2014-6-9T10:24:9Z</time></trkpt>
<trkpt lat="319.5648824" lon="10201.6"><ele></ele><time>2014-6-9T10:24:12Z</time></trkpt>
<trkpt lat="317.3472632" lon="10223.1"><ele></ele><time>2014-6-9T10:24:15Z</time></trkpt>
<trkpt lat="314.8417736" lon="10246.5"><ele></ele><time>2014-6-9T10:24:18Z</time></trkpt>
<trkpt lat="311.883596" lon="10257.6"><ele></ele><time>2014-6-9T10:24:21Z</time></trkpt>
<trkpt lat="308.8602368" lon="10291.6"><ele></ele><time>2014-6-9T10:24:24Z</time></trkpt>
<trkpt lat="306.0748784" lon="10306.2"><ele></ele><time>2014-6-9T10:24:27Z</time></trkpt>
<trkpt lat="302.3719904" lon="10326.4"><ele></ele><time>2014-6-9T10:24:30Z</time></trkpt>
<trkpt lat="299.25412112" lon="10346.7"><ele></ele><time>2014-6-9T10:24:33Z</time></trkpt>
<trkpt lat="297.42763456" lon="10433.4"><ele></ele><time>2014-6-9T10:24:36Z</time></trkpt>
<trkpt lat="296.6980864" lon="10498.8"><ele></ele><time>2014-6-9T10:24:39Z</time></trkpt>
<trkpt lat="295.8164576" lon="10556.6"><ele></ele><time>2014-6-9T10:24:42Z</time></trkpt>
<trkpt lat="297.94392064" lon="10650.2"><ele></ele><time>2014-6-9T10:24:45Z</time></trkpt>
<trkpt lat="297.49057504" lon="10713.1"><ele></ele><time>2014-6-9T10:24:48Z</time></trkpt>
<trkpt lat="296.84472256" lon="10752.7"><ele></ele><time>2014-6-9T10:24:51Z</time></trkpt>
<trkpt lat="287.94854208" lon="10872.7"><ele></ele><time>2014-6-9T10:24:54Z</time></trkpt>
<trkpt lat="285.84906976" lon="10974.6"><ele></ele><time>2014-6-9T10:24:57Z</time></trkpt>
<trkpt lat="285.8082688" lon="11051.6"><ele></ele><time>2014-6-9T10:25:0Z</time></trkpt>
<trkpt lat="283.68160432" lon="11106"><ele></ele><time>2014-6-9T10:25:3Z</time></trkpt>
<trkpt lat="283.6674112" lon="11157.3"><ele></ele><time>2014-6-9T10:25:6Z</time></trkpt>
<trkpt lat="282.35039488" lon="11264.3"><ele></ele><time>2014-6-9T10:25:9Z</time></trkpt>
<trkpt lat="281.19176192" lon="11319.7"><ele></ele><time>2014-6-9T10:25:12Z</time></trkpt>
<trkpt lat="281.67716" lon="11389"><ele></ele><time>2014-6-9T10:25:15Z</time></trkpt>
<trkpt lat="284.2648" lon="11445.3"><ele></ele><time>2014-6-9T10:25:18Z</time></trkpt>
<trkpt lat="286.0672" lon="11475.1"><ele></ele><time>2014-6-9T10:25:21Z</time></trkpt>
<trkpt lat="292.09078016" lon="11513.1"><ele></ele><time>2014-6-9T10:25:24Z</time></trkpt>
<trkpt lat="294.81821408" lon="11528.5"><ele></ele><time>2014-6-9T10:25:27Z</time></trkpt>
<trkpt lat="298.98544064" lon="11556.5"><ele></ele><time>2014-6-9T10:25:30Z</time></trkpt>
<trkpt lat="305.5592912" lon="11580.2"><ele></ele><time>2014-6-9T10:25:33Z</time></trkpt>
<trkpt lat="307.5081056" lon="11598.3"><ele></ele><time>2014-6-9T10:25:36Z</time></trkpt>
<trkpt lat="310.80576128" lon="11622"><ele></ele><time>2014-6-9T10:25:39Z</time></trkpt>
<trkpt lat="311.3296352" lon="11635.9"><ele></ele><time>2014-6-9T10:25:42Z</time></trkpt>
<trkpt lat="317.91734912" lon="11668.5"><ele></ele><time>2014-6-9T10:25:45Z</time></trkpt>
<trkpt lat="320.7536672" lon="11686.2"><ele></ele><time>2014-6-9T10:25:48Z</time></trkpt>
<trkpt lat="322.73917184" lon="11705.3"><ele></ele><time>2014-6-9T10:25:51Z</time></trkpt>
<trkpt lat="323.94023072" lon="11734"><ele></ele><time>2014-6-9T10:25:54Z</time></trkpt>
<trkpt lat="323.03495936" lon="11764.3"><ele></ele><time>2014-6-9T10:25:57Z</time></trkpt>
<trkpt lat="322.56848384" lon="11793.6"><ele></ele><time>2014-6-9T10:26:0Z</time></trkpt>
<trkpt lat="325.7104752" lon="11861.4"><ele></ele><time>2014-6-9T10:26:3Z</time></trkpt>
<trkpt lat="328.1443328" lon="11932.7"><ele></ele><time>2014-6-9T10:26:6Z</time></trkpt>
<trkpt lat="328.63318272" lon="12044.2"><ele></ele><time>2014-6-9T10:26:9Z</time></trkpt>
<trkpt lat="327.0047616" lon="12187.8"><ele></ele><time>2014-6-9T10:26:12Z</time></trkpt>
<trkpt lat="328.96581392" lon="12352.6"><ele></ele><time>2014-6-9T10:26:15Z</time></trkpt>
<trkpt lat="324.86233472" lon="12611.3"><ele></ele><time>2014-6-9T10:26:18Z</time></trkpt>
<trkpt lat="322.2548672" lon="12789.7"><ele></ele><time>2014-6-9T10:26:21Z</time></trkpt>
<trkpt lat="324.85217088" lon="12984"><ele></ele><time>2014-6-9T10:26:24Z</time></trkpt>
<trkpt lat="327.3125504" lon="13120.6"><ele></ele><time>2014-6-9T10:26:27Z</time></trkpt>
<trkpt lat="324.66732864" lon="13219.5"><ele></ele><time>2014-6-9T10:26:30Z</time></trkpt>
<trkpt lat="324.00070272" lon="13281.2"><ele></ele><time>2014-6-9T10:26:33Z</time></trkpt>
<trkpt lat="323.5208512" lon="13340"><ele></ele><time>2014-6-9T10:26:36Z</time></trkpt>
<trkpt lat="322.46994304" lon="13407"><ele></ele><time>2014-6-9T10:26:39Z</time></trkpt>
<trkpt lat="321.89150656" lon="13467.1"><ele></ele><time>2014-6-9T10:26:42Z</time></trkpt>
<trkpt lat="323.4144" lon="13548.5"><ele></ele><time>2014-6-9T10:26:45Z</time></trkpt>
<trkpt lat="322.20217472" lon="13596.5"><ele></ele><time>2014-6-9T10:26:48Z</time></trkpt>
<trkpt lat="319.6692608" lon="13644.3"><ele></ele><time>2014-6-9T10:26:51Z</time></trkpt>
<trkpt lat="319.27932464" lon="13710.2"><ele></ele><time>2014-6-9T10:26:54Z</time></trkpt>
<trkpt lat="322.36424192" lon="13784.6"><ele></ele><time>2014-6-9T10:26:57Z</time></trkpt>
<trkpt lat="321.84235136" lon="13837.7"><ele></ele><time>2014-6-9T10:27:0Z</time></trkpt>
<trkpt lat="320.24642624" lon="13898.4"><ele></ele><time>2014-6-9T10:27:3Z</time></trkpt>
<trkpt lat="319.94988032" lon="13950.1"><ele></ele><time>2014-6-9T10:27:6Z</time></trkpt>
<trkpt lat="316.5844464" lon="14066.7"><ele></ele><time>2014-6-9T10:27:9Z</time></trkpt>
<trkpt lat="317.5720128" lon="14110.5"><ele></ele><time>2014-6-9T10:27:12Z</time></trkpt>
<trkpt lat="316.4586648" lon="14233.7"><ele></ele><time>2014-6-9T10:27:15Z</time></trkpt>
<trkpt lat="315.8659008" lon="14303.8"><ele></ele><time>2014-6-9T10:27:18Z</time></trkpt>
<trkpt lat="313.68" lon="14376.8"><ele></ele><time>2014-6-9T10:27:21Z</time></trkpt>
<trkpt lat="314.03414272" lon="14404.1"><ele></ele><time>2014-6-9T10:27:24Z</time></trkpt>
<trkpt lat="312.52474624" lon="14469.4"><ele></ele><time>2014-6-9T10:27:27Z</time></trkpt>
<trkpt lat="313.5583872" lon="14517.1"><ele></ele><time>2014-6-9T10:27:30Z</time></trkpt>
<trkpt lat="313.39444656" lon="14554.5"><ele></ele><time>2014-6-9T10:27:33Z</time></trkpt>
<trkpt lat="314.66626304" lon="14599.4"><ele></ele><time>2014-6-9T10:27:36Z</time></trkpt>
<trkpt lat="312.9712024" lon="14708.2"><ele></ele><time>2014-6-9T10:27:39Z</time></trkpt>
<trkpt lat="315.0848" lon="14779"><ele></ele><time>2014-6-9T10:27:42Z</time></trkpt>
<trkpt lat="314.9192" lon="14838.2"><ele></ele><time>2014-6-9T10:27:45Z</time></trkpt>
<trkpt lat="315.70962368" lon="14894"><ele></ele><time>2014-6-9T10:27:48Z</time></trkpt>
<trkpt lat="318.79831424" lon="14951.9"><ele></ele><time>2014-6-9T10:27:51Z</time></trkpt>
<trkpt lat="319.726376" lon="14997.7"><ele></ele><time>2014-6-9T10:27:54Z</time></trkpt>
<trkpt lat="319.74449504" lon="15038.8"><ele></ele><time>2014-6-9T10:27:57Z</time></trkpt>
<trkpt lat="319.1820768" lon="15122"><ele></ele><time>2014-6-9T10:28:0Z</time></trkpt>
<trkpt lat="319.07016" lon="15200.1"><ele></ele><time>2014-6-9T10:28:3Z</time></trkpt>
<trkpt lat="318.93097536" lon="15231.1"><ele></ele><time>2014-6-9T10:28:6Z</time></trkpt>
<trkpt lat="318.18816" lon="15280.6"><ele></ele><time>2014-6-9T10:28:9Z</time></trkpt>
<trkpt lat="317.28987648" lon="15325"><ele></ele><time>2014-6-9T10:28:12Z</time></trkpt>
<trkpt lat="314.75318112" lon="15377.2"><ele></ele><time>2014-6-9T10:28:15Z</time></trkpt>
<trkpt lat="312.9699888" lon="15411.5"><ele></ele><time>2014-6-9T10:28:18Z</time></trkpt>
<trkpt lat="309.3078048" lon="15451.9"><ele></ele><time>2014-6-9T10:28:21Z</time></trkpt>
<trkpt lat="307.7890176" lon="15482.5"><ele></ele><time>2014-6-9T10:28:24Z</time></trkpt>
<trkpt lat="304.94501408" lon="15511.2"><ele></ele><time>2014-6-9T10:28:27Z</time></trkpt>
<trkpt lat="302.26144832" lon="15539.2"><ele></ele><time>2014-6-9T10:28:30Z</time></trkpt>
<trkpt lat="302.43668864" lon="15565"><ele></ele><time>2014-6-9T10:28:33Z</time></trkpt>
<trkpt lat="297.36209984" lon="15596.8"><ele></ele><time>2014-6-9T10:28:36Z</time></trkpt>
<trkpt lat="295.34967536" lon="15646.8"><ele></ele><time>2014-6-9T10:28:39Z</time></trkpt>
<trkpt lat="288.5493024" lon="15676"><ele></ele><time>2014-6-9T10:28:42Z</time></trkpt>
<trkpt lat="274.6210696" lon="15730"><ele></ele><time>2014-6-9T10:28:45Z</time></trkpt>
<trkpt lat="270.98103472" lon="15759.1"><ele></ele><time>2014-6-9T10:28:48Z</time></trkpt>
<trkpt lat="266.23875712" lon="15793.2"><ele></ele><time>2014-6-9T10:28:51Z</time></trkpt>
<trkpt lat="266.4065872" lon="15807.6"><ele></ele><time>2014-6-9T10:28:54Z</time></trkpt>
<trkpt lat="270.413632" lon="15840.5"><ele></ele><time>2014-6-9T10:28:57Z</time></trkpt>
<trkpt lat="273.52893616" lon="15861.2"><ele></ele><time>2014-6-9T10:29:0Z</time></trkpt>
<trkpt lat="277.4027416" lon="15892.5"><ele></ele><time>2014-6-9T10:29:3Z</time></trkpt>
<trkpt lat="286.77967376" lon="15940.2"><ele></ele><time>2014-6-9T10:29:6Z</time></trkpt>
<trkpt lat="283.4820736" lon="16775.3"><ele></ele><time>2014-6-9T10:29:9Z</time></trkpt>
<trkpt lat="283.13821696" lon="16791.2"><ele></ele><time>2014-6-9T10:29:12Z</time></trkpt>
<trkpt lat="279.56356896" lon="16829"><ele></ele><time>2014-6-9T10:29:15Z</time></trkpt>
<trkpt lat="279.91403904" lon="16859.7"><ele></ele><time>2014-6-9T10:29:18Z</time></trkpt>
<trkpt lat="282.92757888" lon="16894.2"><ele></ele><time>2014-6-9T10:29:21Z</time></trkpt>
<trkpt lat="285.0208" lon="16928.3"><ele></ele><time>2014-6-9T10:29:24Z</time></trkpt>
<trkpt lat="278.59264576" lon="16985"><ele></ele><time>2014-6-9T10:29:27Z</time></trkpt>
<trkpt lat="276.15697024" lon="17014"><ele></ele><time>2014-6-9T10:29:30Z</time></trkpt>
<trkpt lat="277.4871424" lon="17058.9"><ele></ele><time>2014-6-9T10:29:33Z</time></trkpt>
<trkpt lat="280.59599488" lon="17110.6"><ele></ele><time>2014-6-9T10:29:36Z</time></trkpt>
<trkpt lat="280.4845536" lon="17148.2"><ele></ele><time>2014-6-9T10:29:39Z</time></trkpt>
<trkpt lat="278.1744144" lon="17189.3"><ele></ele><time>2014-6-9T10:29:42Z</time></trkpt>
<trkpt lat="277.835328" lon="17218.1"><ele></ele><time>2014-6-9T10:29:45Z</time></trkpt>
<trkpt lat="278.12493696" lon="17246.6"><ele></ele><time>2014-6-9T10:29:48Z</time></trkpt>
<trkpt lat="277.3559424" lon="17283"><ele></ele><time>2014-6-9T10:29:51Z</time></trkpt>
<trkpt lat="276.411456" lon="17340.8"><ele></ele><time>2014-6-9T10:29:54Z</time></trkpt>
<trkpt lat="274.02118464" lon="17380.8"><ele></ele><time>2014-6-9T10:29:57Z</time></trkpt>
<trkpt lat="273" lon="17411.4"><ele></ele><time>2014-6-9T10:30:0Z</time></trkpt>
<trkpt lat="273" lon="17432.7"><ele></ele><time>2014-6-9T10:30:3Z</time></trkpt>
<trkpt lat="273" lon="17456"><ele></ele><time>2014-6-9T10:30:6Z</time></trkpt>
<trkpt lat="273" lon="17504"><ele></ele><time>2014-6-9T10:30:9Z</time></trkpt>
<trkpt lat="273" lon="17547.3"><ele></ele><time>2014-6-9T10:30:12Z</time></trkpt>
<trkpt lat="274.22667648" lon="17601.7"><ele></ele><time>2014-6-9T10:30:15Z</time></trkpt>
<trkpt lat="275.83824" lon="17661.7"><ele></ele><time>2014-6-9T10:30:18Z</time></trkpt>
<trkpt lat="276.7680576" lon="17743.6"><ele></ele><time>2014-6-9T10:30:21Z</time></trkpt>
<trkpt lat="277.0704384" lon="17848.5"><ele></ele><time>2014-6-9T10:30:24Z</time></trkpt>
<trkpt lat="275.65506304" lon="17892.9"><ele></ele><time>2014-6-9T10:30:27Z</time></trkpt>
<trkpt lat="280.10814208" lon="17936.1"><ele></ele><time>2014-6-9T10:30:30Z</time></trkpt>
<trkpt lat="281.60339584" lon="17975"><ele></ele><time>2014-6-9T10:30:33Z</time></trkpt>
<trkpt lat="282.52149952" lon="17997.2"><ele></ele><time>2014-6-9T10:30:36Z</time></trkpt>
<trkpt lat="283.47037376" lon="18034.5"><ele></ele><time>2014-6-9T10:30:39Z</time></trkpt>
<trkpt lat="283.87906304" lon="18109.4"><ele></ele><time>2014-6-9T10:30:42Z</time></trkpt>
<trkpt lat="290.598008" lon="18489.2"><ele></ele><time>2014-6-9T10:30:45Z</time></trkpt>
<trkpt lat="297.96571648" lon="18746.9"><ele></ele><time>2014-6-9T10:30:48Z</time></trkpt>
<trkpt lat="300.516336" lon="18824.9"><ele></ele><time>2014-6-9T10:30:51Z</time></trkpt>
<trkpt lat="301.00936704" lon="18897.4"><ele></ele><time>2014-6-9T10:30:54Z</time></trkpt>
<trkpt lat="302.23559504" lon="18960.3"><ele></ele><time>2014-6-9T10:30:57Z</time></trkpt>
<trkpt lat="302.69348336" lon="19012.5"><ele></ele><time>2014-6-9T10:31:0Z</time></trkpt>
<trkpt lat="303.32460944" lon="19053.7"><ele></ele><time>2014-6-9T10:31:3Z</time></trkpt>
<trkpt lat="305.47173472" lon="19104.3"><ele></ele><time>2014-6-9T10:31:6Z</time></trkpt>
<trkpt lat="306.70614144" lon="19145.3"><ele></ele><time>2014-6-9T10:31:9Z</time></trkpt>
<trkpt lat="307.88364192" lon="19185"><ele></ele><time>2014-6-9T10:31:12Z</time></trkpt>
<trkpt lat="309.92487744" lon="19226.5"><ele></ele><time>2014-6-9T10:31:15Z</time></trkpt>
<trkpt lat="314.81320192" lon="19295"><ele></ele><time>2014-6-9T10:31:18Z</time></trkpt>
<trkpt lat="317.110532" lon="19358.8"><ele></ele><time>2014-6-9T10:31:21Z</time></trkpt>
<trkpt lat="319.0076672" lon="19427.6"><ele></ele><time>2014-6-9T10:31:24Z</time></trkpt>
<trkpt lat="320.36871824" lon="19472.9"><ele></ele><time>2014-6-9T10:31:27Z</time></trkpt>
<trkpt lat="321.488" lon="19525.3"><ele></ele><time>2014-6-9T10:31:30Z</time></trkpt>
<trkpt lat="322.73589056" lon="19595.7"><ele></ele><time>2014-6-9T10:31:33Z</time></trkpt>
<trkpt lat="323.806784" lon="19654.8"><ele></ele><time>2014-6-9T10:31:36Z</time></trkpt>
<trkpt lat="326.254" lon="19728.5"><ele></ele><time>2014-6-9T10:31:39Z</time></trkpt>
<trkpt lat="328.00222976" lon="19822.6"><ele></ele><time>2014-6-9T10:31:42Z</time></trkpt>
<trkpt lat="328.63518464" lon="19866.9"><ele></ele><time>2014-6-9T10:31:45Z</time></trkpt>
<trkpt lat="329.54" lon="19926.4"><ele></ele><time>2014-6-9T10:31:48Z</time></trkpt>
<trkpt lat="331.128608" lon="19975.9"><ele></ele><time>2014-6-9T10:31:51Z</time></trkpt>
<trkpt lat="332.650312" lon="20077.9"><ele></ele><time>2014-6-9T10:31:54Z</time></trkpt>
<trkpt lat="335.2032" lon="20120.7"><ele></ele><time>2014-6-9T10:31:57Z</time></trkpt>
<trkpt lat="340.0116" lon="20201.6"><ele></ele><time>2014-6-9T10:32:0Z</time></trkpt>
<trkpt lat="342.98801952" lon="20267.4"><ele></ele><time>2014-6-9T10:32:3Z</time></trkpt>
<trkpt lat="347.09926624" lon="20341.1"><ele></ele><time>2014-6-9T10:32:6Z</time></trkpt>
<trkpt lat="350.3752" lon="20397.9"><ele></ele><time>2014-6-9T10:32:9Z</time></trkpt>
<trkpt lat="356.63703808" lon="20489.2"><ele></ele><time>2014-6-9T10:32:12Z</time></trkpt>
<trkpt lat="361.06204736" lon="20600.7"><ele></ele><time>2014-6-9T10:32:15Z</time></trkpt>
<trkpt lat="365.098048" lon="20703.4"><ele></ele><time>2014-6-9T10:32:18Z</time></trkpt>
<trkpt lat="368.42954048" lon="20744.2"><ele></ele><time>2014-6-9T10:32:21Z</time></trkpt>
<trkpt lat="372.87116672" lon="20786.7"><ele></ele><time>2014-6-9T10:32:24Z</time></trkpt>
<trkpt lat="375.17907584" lon="20805.8"><ele></ele><time>2014-6-9T10:32:27Z</time></trkpt>
<trkpt lat="374.47249088" lon="20828.9"><ele></ele><time>2014-6-9T10:32:30Z</time></trkpt>
<trkpt lat="376.7034944" lon="20858.8"><ele></ele><time>2014-6-9T10:32:33Z</time></trkpt>
<trkpt lat="376.473984" lon="20913"><ele></ele><time>2014-6-9T10:32:36Z</time></trkpt>
<trkpt lat="375.066096" lon="20963.3"><ele></ele><time>2014-6-9T10:32:39Z</time></trkpt>
<trkpt lat="375.133704" lon="21061.4"><ele></ele><time>2014-6-9T10:32:42Z</time></trkpt>
<trkpt lat="375.02983392" lon="21109.4"><ele></ele><time>2014-6-9T10:32:45Z</time></trkpt>
<trkpt lat="373.5968" lon="21209.4"><ele></ele><time>2014-6-9T10:32:48Z</time></trkpt>
<trkpt lat="373.2512" lon="21246.7"><ele></ele><time>2014-6-9T10:32:51Z</time></trkpt>
<trkpt lat="373.197832" lon="21342.5"><ele></ele><time>2014-6-9T10:32:54Z</time></trkpt>
<trkpt lat="369.96045824" lon="21405.6"><ele></ele><time>2014-6-9T10:32:57Z</time></trkpt>
<trkpt lat="361.2561728" lon="21577.8"><ele></ele><time>2014-6-9T10:33:0Z</time></trkpt>
<trkpt lat="362.49865856" lon="21595.6"><ele></ele><time>2014-6-9T10:33:3Z</time></trkpt>
<trkpt lat="363.08057792" lon="21735.5"><ele></ele><time>2014-6-9T10:33:6Z</time></trkpt>
<trkpt lat="361.84270496" lon="21784.5"><ele></ele><time>2014-6-9T10:33:9Z</time></trkpt>
<trkpt lat="363.06124496" lon="21848.4"><ele></ele><time>2014-6-9T10:33:12Z</time></trkpt>
<trkpt lat="362.7307104" lon="21917.5"><ele></ele><time>2014-6-9T10:33:15Z</time></trkpt>
<trkpt lat="361.13363456" lon="21953.5"><ele></ele><time>2014-6-9T10:33:18Z</time></trkpt>
<trkpt lat="358.8970384" lon="22030.9"><ele></ele><time>2014-6-9T10:33:21Z</time></trkpt>
<trkpt lat="357.03435712" lon="22082.9"><ele></ele><time>2014-6-9T10:33:24Z</time></trkpt>
<trkpt lat="360.36359296" lon="22133.5"><ele></ele><time>2014-6-9T10:33:27Z</time></trkpt>
<trkpt lat="362.777536" lon="22179.4"><ele></ele><time>2014-6-9T10:33:30Z</time></trkpt>
<trkpt lat="365.80468224" lon="22256.7"><ele></ele><time>2014-6-9T10:33:33Z</time></trkpt>
<trkpt lat="368.9156" lon="22316.8"><ele></ele><time>2014-6-9T10:33:36Z</time></trkpt>
<trkpt lat="370.8884" lon="22356.5"><ele></ele><time>2014-6-9T10:33:39Z</time></trkpt>
<trkpt lat="373.61575936" lon="22421.7"><ele></ele><time>2014-6-9T10:33:42Z</time></trkpt>
<trkpt lat="374.48675456" lon="22453.5"><ele></ele><time>2014-6-9T10:33:45Z</time></trkpt>
<trkpt lat="376.26564608" lon="22501.6"><ele></ele><time>2014-6-9T10:33:48Z</time></trkpt>
<trkpt lat="382.205728" lon="22573.4"><ele></ele><time>2014-6-9T10:33:51Z</time></trkpt>
<trkpt lat="382.42359808" lon="22599.3"><ele></ele><time>2014-6-9T10:33:54Z</time></trkpt>
<trkpt lat="385.72337856" lon="22640.5"><ele></ele><time>2014-6-9T10:33:57Z</time></trkpt>
<trkpt lat="388.71181344" lon="22677.5"><ele></ele><time>2014-6-9T10:34:0Z</time></trkpt>
<trkpt lat="392.8464704" lon="22733.5"><ele></ele><time>2014-6-9T10:34:3Z</time></trkpt>
<trkpt lat="389.76804992" lon="22779"><ele></ele><time>2014-6-9T10:34:6Z</time></trkpt>
<trkpt lat="386.9938928" lon="22814.8"><ele></ele><time>2014-6-9T10:34:9Z</time></trkpt>
<trkpt lat="384.50269568" lon="22865.8"><ele></ele><time>2014-6-9T10:34:12Z</time></trkpt>
<trkpt lat="380.38590272" lon="22914.1"><ele></ele><time>2014-6-9T10:34:15Z</time></trkpt>
<trkpt lat="377.16265344" lon="22964.5"><ele></ele><time>2014-6-9T10:34:18Z</time></trkpt>
<trkpt lat="376.6880824" lon="23051.5"><ele></ele><time>2014-6-9T10:34:21Z</time></trkpt>
<trkpt lat="376.7587048" lon="23094.8"><ele></ele><time>2014-6-9T10:34:24Z</time></trkpt>
<trkpt lat="377.46882112" lon="23171.1"><ele></ele><time>2014-6-9T10:34:27Z</time></trkpt>
<trkpt lat="376.71786304" lon="23217.3"><ele></ele><time>2014-6-9T10:34:30Z</time></trkpt>
<trkpt lat="377.15262464" lon="23265.2"><ele></ele><time>2014-6-9T10:34:33Z</time></trkpt>
<trkpt lat="376.6931984" lon="23311.2"><ele></ele><time>2014-6-9T10:34:36Z</time></trkpt>
<trkpt lat="376.519184" lon="23364.5"><ele></ele><time>2014-6-9T10:34:39Z</time></trkpt>
<trkpt lat="377.292" lon="23400.9"><ele></ele><time>2014-6-9T10:34:42Z</time></trkpt>
<trkpt lat="378.8652" lon="23429.4"><ele></ele><time>2014-6-9T10:34:45Z</time></trkpt>
<trkpt lat="381.298" lon="23473.3"><ele></ele><time>2014-6-9T10:34:48Z</time></trkpt>
<trkpt lat="383.25605632" lon="23539.1"><ele></ele><time>2014-6-9T10:34:51Z</time></trkpt>
<trkpt lat="382.250068" lon="23586.3"><ele></ele><time>2014-6-9T10:34:54Z</time></trkpt>
<trkpt lat="382.936" lon="23609"><ele></ele><time>2014-6-9T10:34:57Z</time></trkpt>
<trkpt lat="385.876" lon="23636.4"><ele></ele><time>2014-6-9T10:35:0Z</time></trkpt>
<trkpt lat="392.24826" lon="23730.5"><ele></ele><time>2014-6-9T10:35:3Z</time></trkpt>
<trkpt lat="395.67587184" lon="23873.4"><ele></ele><time>2014-6-9T10:35:6Z</time></trkpt>
<trkpt lat="399.1237056" lon="23931.5"><ele></ele><time>2014-6-9T10:35:9Z</time></trkpt>
<trkpt lat="397.99962" lon="23992.4"><ele></ele><time>2014-6-9T10:35:12Z</time></trkpt>
<trkpt lat="397.44620064" lon="24049.7"><ele></ele><time>2014-6-9T10:35:15Z</time></trkpt>
<trkpt lat="395.74511616" lon="24113.9"><ele></ele><time>2014-6-9T10:35:18Z</time></trkpt>
<trkpt lat="394.86485296" lon="24169.9"><ele></ele><time>2014-6-9T10:35:21Z</time></trkpt>
<trkpt lat="396.4246784" lon="24231.7"><ele></ele><time>2014-6-9T10:35:24Z</time></trkpt>
<trkpt lat="396.977648" lon="24293.4"><ele></ele><time>2014-6-9T10:35:27Z</time></trkpt>
<trkpt lat="400.9509704" lon="24366.6"><ele></ele><time>2014-6-9T10:35:30Z</time></trkpt>
<trkpt lat="400.8252032" lon="24421"><ele></ele><time>2014-6-9T10:35:33Z</time></trkpt>
<trkpt lat="403.27591232" lon="24455.9"><ele></ele><time>2014-6-9T10:35:36Z</time></trkpt>
<trkpt lat="405.68781824" lon="24506.7"><ele></ele><time>2014-6-9T10:35:39Z</time></trkpt>
<trkpt lat="409.0832576" lon="24557"><ele></ele><time>2014-6-9T10:35:42Z</time></trkpt>
<trkpt lat="412.25187584" lon="24609.8"><ele></ele><time>2014-6-9T10:35:45Z</time></trkpt>
<trkpt lat="411.8455232" lon="24655.8"><ele></ele><time>2014-6-9T10:35:48Z</time></trkpt>
<trkpt lat="411.5873296" lon="24716.2"><ele></ele><time>2014-6-9T10:35:51Z</time></trkpt>
<trkpt lat="410.43035056" lon="24757.7"><ele></ele><time>2014-6-9T10:35:54Z</time></trkpt>
<trkpt lat="407.8703056" lon="24788.8"><ele></ele><time>2014-6-9T10:35:57Z</time></trkpt>
<trkpt lat="403.99423744" lon="24825.2"><ele></ele><time>2014-6-9T10:36:0Z</time></trkpt>
<trkpt lat="406.63408384" lon="24860.5"><ele></ele><time>2014-6-9T10:36:3Z</time></trkpt>
<trkpt lat="404.69538304" lon="24897.5"><ele></ele><time>2014-6-9T10:36:6Z</time></trkpt>
<trkpt lat="402.6506464" lon="24951.3"><ele></ele><time>2014-6-9T10:36:9Z</time></trkpt>
<trkpt lat="400.48503104" lon="25007.4"><ele></ele><time>2014-6-9T10:36:12Z</time></trkpt>
<trkpt lat="399.18429152" lon="25047.1"><ele></ele><time>2014-6-9T10:36:15Z</time></trkpt>
<trkpt lat="399.29159328" lon="25107.6"><ele></ele><time>2014-6-9T10:36:18Z</time></trkpt>
<trkpt lat="399.583296" lon="25145.7"><ele></ele><time>2014-6-9T10:36:21Z</time></trkpt>
<trkpt lat="400.72861056" lon="25204.8"><ele></ele><time>2014-6-9T10:36:24Z</time></trkpt>
<trkpt lat="399.3919424" lon="25269.4"><ele></ele><time>2014-6-9T10:36:27Z</time></trkpt>
<trkpt lat="395.2800896" lon="25308.9"><ele></ele><time>2014-6-9T10:36:30Z</time></trkpt>
<trkpt lat="393.1576616" lon="25359"><ele></ele><time>2014-6-9T10:36:33Z</time></trkpt>
<trkpt lat="394.74940672" lon="25421.1"><ele></ele><time>2014-6-9T10:36:36Z</time></trkpt>
<trkpt lat="393.53075296" lon="25489.1"><ele></ele><time>2014-6-9T10:36:39Z</time></trkpt>
<trkpt lat="387.48577024" lon="25575.4"><ele></ele><time>2014-6-9T10:36:42Z</time></trkpt>
<trkpt lat="382.873524" lon="25633.2"><ele></ele><time>2014-6-9T10:36:45Z</time></trkpt>
<trkpt lat="380.391504" lon="25671.1"><ele></ele><time>2014-6-9T10:36:48Z</time></trkpt>
<trkpt lat="375.83707584" lon="25727.4"><ele></ele><time>2014-6-9T10:36:51Z</time></trkpt>
<trkpt lat="366.0931184" lon="25854.6"><ele></ele><time>2014-6-9T10:36:54Z</time></trkpt>
<trkpt lat="362.687712" lon="26010.4"><ele></ele><time>2014-6-9T10:36:57Z</time></trkpt>
<trkpt lat="360.5886408" lon="26054.5"><ele></ele><time>2014-6-9T10:37:0Z</time></trkpt>
<trkpt lat="360.10022688" lon="26097.4"><ele></ele><time>2014-6-9T10:37:3Z</time></trkpt>
<trkpt lat="357.28351424" lon="26194.3"><ele></ele><time>2014-6-9T10:37:6Z</time></trkpt>
<trkpt lat="356.92871552" lon="26244"><ele></ele><time>2014-6-9T10:37:9Z</time></trkpt>
<trkpt lat="355.7114624" lon="26275.4"><ele></ele><time>2014-6-9T10:37:12Z</time></trkpt>
<trkpt lat="353.489368" lon="26325.9"><ele></ele><time>2014-6-9T10:37:15Z</time></trkpt>
<trkpt lat="353.52474208" lon="26364.3"><ele></ele><time>2014-6-9T10:37:18Z</time></trkpt>
<trkpt lat="353.9036128" lon="26432.7"><ele></ele><time>2014-6-9T10:37:21Z</time></trkpt>
<trkpt lat="353.35004416" lon="26494.6"><ele></ele><time>2014-6-9T10:37:24Z</time></trkpt>
<trkpt lat="352.5456" lon="26542.2"><ele></ele><time>2014-6-9T10:37:27Z</time></trkpt>
<trkpt lat="351.92977184" lon="26594.5"><ele></ele><time>2014-6-9T10:37:30Z</time></trkpt>
<trkpt lat="351.5184992" lon="26695.3"><ele></ele><time>2014-6-9T10:37:33Z</time></trkpt>
<trkpt lat="350.63530944" lon="26809.2"><ele></ele><time>2014-6-9T10:37:36Z</time></trkpt>
<trkpt lat="350.1192" lon="26868.7"><ele></ele><time>2014-6-9T10:37:39Z</time></trkpt>
<trkpt lat="347.11634304" lon="26999.1"><ele></ele><time>2014-6-9T10:37:42Z</time></trkpt>
<trkpt lat="344.7874368" lon="27090.1"><ele></ele><time>2014-6-9T10:37:45Z</time></trkpt>
<trkpt lat="343.36921856" lon="27149.5"><ele></ele><time>2014-6-9T10:37:48Z</time></trkpt>
<trkpt lat="342.71459264" lon="27218.1"><ele></ele><time>2014-6-9T10:37:51Z</time></trkpt>
<trkpt lat="341.49420448" lon="27287.1"><ele></ele><time>2014-6-9T10:37:54Z</time></trkpt>
<trkpt lat="340.44263552" lon="27323.8"><ele></ele><time>2014-6-9T10:37:57Z</time></trkpt>
<trkpt lat="339.89986496" lon="27426.5"><ele></ele><time>2014-6-9T10:38:0Z</time></trkpt>
<trkpt lat="339.63444832" lon="27468"><ele></ele><time>2014-6-9T10:38:3Z</time></trkpt>
<trkpt lat="336.9592" lon="27538.7"><ele></ele><time>2014-6-9T10:38:6Z</time></trkpt>
<trkpt lat="335.80806048" lon="27619.5"><ele></ele><time>2014-6-9T10:38:9Z</time></trkpt>
<trkpt lat="334.32949824" lon="27680.7"><ele></ele><time>2014-6-9T10:38:12Z</time></trkpt>
<trkpt lat="337.6929072" lon="27753.8"><ele></ele><time>2014-6-9T10:38:15Z</time></trkpt>
<trkpt lat="340.34683968" lon="27843.6"><ele></ele><time>2014-6-9T10:38:18Z</time></trkpt>
<trkpt lat="339.8976" lon="27915.7"><ele></ele><time>2014-6-9T10:38:21Z</time></trkpt>
<trkpt lat="340.4832" lon="27943.6"><ele></ele><time>2014-6-9T10:38:24Z</time></trkpt>
<trkpt lat="343.242" lon="27973.3"><ele></ele><time>2014-6-9T10:38:27Z</time></trkpt>
<trkpt lat="344.4492768" lon="27999.6"><ele></ele><time>2014-6-9T10:38:30Z</time></trkpt>
<trkpt lat="344.4512976" lon="28018.1"><ele></ele><time>2014-6-9T10:38:33Z</time></trkpt>
<trkpt lat="345.49661968" lon="28062.9"><ele></ele><time>2014-6-9T10:38:36Z</time></trkpt>
<trkpt lat="341.8096" lon="28108.6"><ele></ele><time>2014-6-9T10:38:39Z</time></trkpt>
<trkpt lat="341.18364672" lon="28185.1"><ele></ele><time>2014-6-9T10:38:42Z</time></trkpt>
<trkpt lat="347.9850912" lon="28272.8"><ele></ele><time>2014-6-9T10:38:45Z</time></trkpt>
<trkpt lat="356.17725568" lon="28330.7"><ele></ele><time>2014-6-9T10:38:48Z</time></trkpt>
<trkpt lat="372.5627056" lon="28423.4"><ele></ele><time>2014-6-9T10:38:51Z</time></trkpt>
<trkpt lat="376.7903968" lon="28518.2"><ele></ele><time>2014-6-9T10:38:54Z</time></trkpt>
<trkpt lat="371.75980864" lon="28589.3"><ele></ele><time>2014-6-9T10:38:57Z</time></trkpt>
<trkpt lat="371.13993856" lon="28684.3"><ele></ele><time>2014-6-9T10:39:0Z</time></trkpt>
<trkpt lat="369.1036672" lon="28751.2"><ele></ele><time>2014-6-9T10:39:3Z</time></trkpt>
<trkpt lat="368.10475648" lon="28811.5"><ele></ele><time>2014-6-9T10:39:6Z</time></trkpt>
<trkpt lat="365.83967344" lon="28923.8"><ele></ele><time>2014-6-9T10:39:9Z</time></trkpt>
<trkpt lat="373.40964416" lon="29068.1"><ele></ele><time>2014-6-9T10:39:12Z</time></trkpt>
<trkpt lat="378.68035232" lon="29187.1"><ele></ele><time>2014-6-9T10:39:15Z</time></trkpt>
<trkpt lat="381.09022336" lon="29278.6"><ele></ele><time>2014-6-9T10:39:18Z</time></trkpt>
<trkpt lat="380.26332928" lon="29383.8"><ele></ele><time>2014-6-9T10:39:21Z</time></trkpt>
<trkpt lat="379.8331712" lon="29475.2"><ele></ele><time>2014-6-9T10:39:24Z</time></trkpt>
<trkpt lat="378.17563264" lon="29546.4"><ele></ele><time>2014-6-9T10:39:27Z</time></trkpt>
<trkpt lat="378.25656256" lon="29599.9"><ele></ele><time>2014-6-9T10:39:30Z</time></trkpt>
<trkpt lat="" lon=""><ele></ele><time>2014-6-9T10:39:33Z</time></trkpt>
<trkpt lat="" lon=""><ele></ele><time>2014-6-9T10:39:36Z</time></trkpt>
</trkseg></trk></gpx>